Time;durP1;ratioP1;P1;durP2;ratioP2;P2;SDS_P1;SDS_P2;PMS_P1;PMS_P2;Temp;Humidity;BMP_temperature;BMP_pressure;BME280_temperature;BME280_humidity;BME280_pressure;Samples;Min_cycle;Max_cycle;Signal;HPM_P1;HPM_P2
2022/04/24 00:03:41;;;;;;;10.82;5.00;;;;;;;11.24;53.26;98512.34;5001872;28;20310;-87
2022/04/24 00:06:07;;;;;;;7.72;4.32;;;;;;;11.03;53.96;98504.50;5003469;28;20030;-87
2022/04/24 00:08:32;;;;;;;9.40;5.55;;;;;;;11.13;54.05;98501.59;5002790;28;20092;-87
2022/04/24 00:10:57;;;;;;;12.00;5.60;;;;;;;10.78;55.77;98512.81;5002821;28;20053;-86
2022/04/24 00:13:23;;;;;;;9.37;5.17;;;;;;;10.93;54.60;98498.13;5003413;28;20374;-87
2022/04/24 00:15:49;;;;;;;10.02;4.85;;;;;;;11.06;53.67;98498.47;5003198;28;20256;-87
2022/04/24 00:18:15;;;;;;;12.10;5.07;;;;;;;10.95;54.22;98501.38;5003760;28;20022;-87
2022/04/24 00:20:42;;;;;;;9.50;5.50;;;;;;;10.81;55.13;98506.78;5002620;28;20033;-87
2022/04/24 00:23:07;;;;;;;9.23;5.88;;;;;;;10.98;54.75;98499.97;5006077;28;20058;-87
2022/04/24 00:25:32;;;;;;;10.97;5.23;;;;;;;10.91;55.07;98489.44;4985627;28;20034;-87
2022/04/24 00:28:00;;;;;;;10.00;6.07;;;;;;;10.58;55.83;98503.03;5003606;28;20637;-87
2022/04/24 00:30:26;;;;;;;9.15;6.15;;;;;;;10.49;56.67;98500.16;5002937;28;20708;-87
2022/04/24 00:32:51;;;;;;;8.07;4.35;;;;;;;10.76;55.01;98500.59;5005410;28;20022;-86
2022/04/24 00:35:16;;;;;;;11.17;5.97;;;;;;;10.61;55.85;98495.09;5006389;28;20026;-87
2022/04/24 00:37:42;;;;;;;9.50;6.00;;;;;;;10.84;54.60;98492.53;5006688;28;20282;-87
2022/04/24 00:40:08;;;;;;;8.83;4.57;;;;;;;11.17;53.83;98488.97;5006627;28;20044;-87
2022/04/24 00:42:33;;;;;;;8.63;4.15;;;;;;;11.11;54.23;98489.38;5006445;28;20751;-86
2022/04/24 00:44:58;;;;;;;8.97;4.77;;;;;;;11.21;53.50;98487.28;4988802;28;20021;-88
2022/04/24 00:47:24;;;;;;;8.88;5.10;;;;;;;11.09;53.99;98485.03;5005913;28;20263;-87
2022/04/24 00:49:50;;;;;;;9.75;4.95;;;;;;;11.28;53.53;98492.34;5006198;28;20030;-87
2022/04/24 00:52:16;;;;;;;15.38;6.63;;;;;;;11.19;53.58;98499.59;5005608;28;20033;-87
2022/04/24 00:54:41;;;;;;;11.93;5.10;;;;;;;11.06;53.83;98493.81;5006451;28;20149;-86
2022/04/24 00:57:08;;;;;;;8.82;5.20;;;;;;;11.13;53.55;98498.06;5005438;28;20033;-87
2022/04/24 00:59:34;;;;;;;8.35;4.25;;;;;;;10.89;54.99;98496.28;5006406;28;20034;-86
2022/04/24 01:02:03;;;;;;;8.80;5.28;;;;;;;10.90;54.52;98497.91;5005937;28;20091;-86
2022/04/24 01:04:28;;;;;;;10.85;4.18;;;;;;;10.82;54.52;98502.13;5006204;28;20029;-87
2022/04/24 01:06:53;;;;;;;11.68;6.53;;;;;;;10.92;54.21;98501.16;5006027;28;20034;-86
2022/04/24 01:09:23;;;;;;;12.30;5.13;;;;;;;10.44;55.92;98511.09;5006473;28;20093;-86
2022/04/24 01:11:51;;;;;;;8.85;4.68;;;;;;;10.55;55.62;98509.06;5005281;28;20037;-86
2022/04/24 01:14:18;;;;;;;10.63;6.03;;;;;;;10.16;57.19;98509.84;5006390;28;20212;-87
2022/04/24 01:16:45;;;;;;;8.95;6.28;;;;;;;10.11;57.60;98515.34;5003692;28;20125;-86
2022/04/24 01:19:11;;;;;;;11.07;4.75;;;;;;;10.35;56.24;98498.13;5006321;28;20026;-86
2022/04/24 01:24:22;;;;;;;10.68;6.38;;;;;;;10.54;55.30;98507.44;5003567;28;20128;-87
2022/04/24 01:26:48;;;;;;;10.48;5.07;;;;;;;10.61;54.68;98502.44;5005822;28;20401;-87
2022/04/24 01:29:14;;;;;;;11.13;6.20;;;;;;;10.70;54.45;98497.94;4987395;28;20026;-86
2022/04/24 01:31:40;;;;;;;11.45;5.10;;;;;;;10.65;54.52;98505.38;5004545;28;20117;-87
2022/04/24 01:34:05;;;;;;;9.98;5.57;;;;;;;10.58;54.91;98503.84;5005494;28;20097;-87
2022/04/24 01:36:31;;;;;;;14.07;5.65;;;;;;;10.50;55.24;98497.16;5005620;28;20084;-87
2022/04/24 01:38:56;;;;;;;9.57;5.22;;;;;;;10.42;55.54;98500.50;5005765;28;20486;-87
2022/04/24 01:41:21;;;;;;;8.23;5.80;;;;;;;10.31;55.79;98508.03;5005154;28;20033;-88
2022/04/24 01:43:48;;;;;;;11.80;6.00;;;;;;;10.30;55.61;98508.28;5004764;28;20252;-86
2022/04/24 01:46:14;;;;;;;7.60;4.20;;;;;;;10.36;55.55;98494.31;5004821;28;20053;-87
2022/04/24 01:48:39;;;;;;;11.57;6.20;;;;;;;10.46;55.03;98500.72;5005244;28;20046;-87
2022/04/24 01:51:06;;;;;;;12.57;5.07;;;;;;;10.37;55.20;98495.94;5004625;28;20034;-87
2022/04/24 01:53:32;;;;;;;12.35;5.90;;;;;;;10.22;55.65;98496.16;5005679;28;20026;-86
2022/04/24 01:56:03;;;;;;;15.32;6.78;;;;;;;10.20;56.11;98498.34;5004805;28;20042;-87
2022/04/24 01:58:28;;;;;;;10.02;5.43;;;;;;;10.16;56.10;98492.69;5004699;28;20021;-86
2022/04/24 02:00:54;;;;;;;17.15;6.38;;;;;;;10.26;55.60;98480.84;5004140;28;20041;-86
2022/04/24 02:03:21;;;;;;;10.93;5.78;;;;;;;10.35;54.94;98492.69;5005302;28;20535;-87
2022/04/24 02:05:46;;;;;;;10.50;7.28;;;;;;;10.29;55.52;98491.16;5005259;28;20376;-88
2022/04/24 02:08:13;;;;;;;10.30;5.40;;;;;;;10.29;55.61;98493.88;5004442;28;20045;-86
2022/04/24 02:10:39;;;;;;;9.95;5.95;;;;;;;10.03;56.12;98495.03;5005073;28;20060;-87
2022/04/24 02:13:04;;;;;;;10.93;7.18;;;;;;;10.00;56.14;98489.38;5004345;28;20041;-87
2022/04/24 02:15:29;;;;;;;9.70;6.07;;;;;;;9.83;56.77;98490.66;5004473;28;20026;-86
2022/04/24 02:17:55;;;;;;;12.02;6.30;;;;;;;9.82;57.36;98499.94;5004844;28;20030;-86
2022/04/24 02:20:21;;;;;;;9.82;5.75;;;;;;;10.01;56.21;98499.13;5006380;28;20067;-87
2022/04/24 02:22:46;;;;;;;8.52;5.53;;;;;;;9.97;56.69;98495.38;5004929;28;20184;-86
2022/04/24 02:25:12;;;;;;;10.33;7.07;;;;;;;9.81;57.27;98490.13;5004295;28;20022;-86
2022/04/24 02:27:37;;;;;;;11.63;6.50;;;;;;;9.80;56.92;98493.97;5004898;28;20258;-87
2022/04/24 02:30:02;;;;;;;11.63;7.73;;;;;;;9.33;59.73;98495.28;5004500;28;20789;-87
2022/04/24 02:32:28;;;;;;;12.63;7.20;;;;;;;9.22;59.69;98497.28;5004294;28;20793;-87
2022/04/24 02:34:53;;;;;;;12.73;7.70;;;;;;;9.30;59.08;98497.75;5004176;28;20018;-87
2022/04/24 02:37:19;;;;;;;10.97;6.27;;;;;;;8.75;61.39;98497.69;5004595;28;20266;-86
2022/04/24 02:39:44;;;;;;;12.20;7.15;;;;;;;8.69;61.53;98498.81;5004208;28;20669;-87
2022/04/24 02:42:09;;;;;;;14.13;7.00;;;;;;;8.79;61.01;98494.41;5004170;28;20050;-86
2022/04/24 02:44:35;;;;;;;13.30;6.03;;;;;;;8.96;60.54;98486.66;5004285;28;20062;-87
2022/04/24 02:47:01;;;;;;;10.57;7.03;;;;;;;8.71;61.50;98499.34;5004101;28;20144;-87
2022/04/24 02:49:26;;;;;;;11.18;7.13;;;;;;;8.72;61.59;98492.03;5004928;28;20022;-86
2022/04/24 02:51:51;;;;;;;11.20;6.33;;;;;;;8.88;61.21;98500.88;5003772;28;20034;-87
2022/04/24 02:54:17;;;;;;;13.93;6.07;;;;;;;8.89;60.39;98497.03;5004206;28;20251;-86
2022/04/24 02:56:42;;;;;;;12.60;7.77;;;;;;;9.19;59.47;98506.00;5003374;28;20508;-86
2022/04/24 02:59:07;;;;;;;10.20;5.73;;;;;;;8.74;61.66;98500.69;4986211;28;20271;-85
2022/04/24 03:01:34;;;;;;;14.13;7.90;;;;;;;8.50;62.33;98498.66;5002946;28;20276;-86
2022/04/24 03:03:59;;;;;;;11.50;6.50;;;;;;;8.64;62.02;98501.59;5003935;28;20033;-86
2022/04/24 03:06:25;;;;;;;13.60;7.93;;;;;;;8.61;61.83;98499.41;5004409;28;20018;-86
2022/04/24 03:08:50;;;;;;;10.10;6.30;;;;;;;8.93;60.98;98498.09;5003338;28;20037;-87
2022/04/24 03:11:15;;;;;;;10.88;7.38;;;;;;;8.73;61.30;98499.06;5004331;28;20022;-85
2022/04/24 03:13:42;;;;;;;9.15;5.15;;;;;;;8.77;61.34;98491.97;5003416;28;20017;-86
2022/04/24 03:16:08;;;;;;;11.35;6.72;;;;;;;8.95;60.89;98495.09;5003431;28;20025;-87
2022/04/24 03:21:55;;;;;;;10.13;7.40;;;;;;;9.34;59.56;98486.03;5001890;28;20053;-87
2022/04/24 03:24:20;;;;;;;11.65;8.18;;;;;;;9.19;59.89;98489.69;5003391;28;20496;-87
2022/04/24 03:26:45;;;;;;;11.63;7.80;;;;;;;9.15;60.10;98494.13;5003406;28;20104;-86
2022/04/24 03:29:11;;;;;;;11.50;7.00;;;;;;;9.09;60.26;98489.81;5004182;28;20255;-86
2022/04/24 03:31:36;;;;;;;13.00;7.20;;;;;;;8.78;61.31;98481.91;5002668;28;20371;-86
2022/04/24 03:34:02;;;;;;;13.07;7.00;;;;;;;8.57;62.28;98491.03;5003795;28;20251;-85
2022/04/24 03:36:27;;;;;;;14.27;8.13;;;;;;;8.06;64.04;98482.06;5004127;28;20286;-86
2022/04/24 03:38:52;;;;;;;13.70;7.50;;;;;;;7.82;64.83;98494.41;5003260;28;20030;-86
2022/04/24 03:41:17;;;;;;;13.05;7.65;;;;;;;7.75;65.50;98491.16;5001994;28;20267;-86
2022/04/24 03:43:43;;;;;;;13.18;7.93;;;;;;;7.33;66.69;98495.91;5003447;28;20018;-85
2022/04/24 03:46:08;;;;;;;13.88;8.30;;;;;;;7.12;67.16;98487.78;4985363;28;20018;-86
2022/04/24 03:48:34;;;;;;;13.87;7.90;;;;;;;7.18;67.69;98485.91;5001981;28;20049;-86
2022/04/24 03:50:59;;;;;;;11.75;7.32;;;;;;;7.21;67.30;98482.63;5002863;28;20260;-86
2022/04/24 03:53:25;;;;;;;19.83;7.95;;;;;;;7.45;66.73;98488.28;5000938;28;20064;-86
2022/04/24 03:55:50;;;;;;;15.10;8.65;;;;;;;7.88;65.08;98483.53;5003056;28;20132;-86
2022/04/24 03:58:15;;;;;;;11.13;7.50;;;;;;;7.69;66.13;98484.94;5003015;28;20128;-86
2022/04/24 04:00:41;;;;;;;16.77;8.65;;;;;;;7.59;66.08;98491.22;5002194;28;20275;-86
2022/04/24 04:03:06;;;;;;;16.92;8.98;;;;;;;7.76;65.96;98495.50;5002913;28;20439;-86
2022/04/24 04:05:35;;;;;;;16.07;8.40;;;;;;;7.61;66.06;98495.56;5003144;28;20302;-86
2022/04/24 04:08:01;;;;;;;14.90;7.97;;;;;;;7.82;65.81;98499.84;5006197;28;20349;-86
2022/04/24 04:10:26;;;;;;;15.70;8.65;;;;;;;7.59;66.31;98493.94;5006693;28;20026;-85
2022/04/24 04:12:51;;;;;;;12.35;8.20;;;;;;;7.64;66.11;98501.25;5007301;28;20057;-85
2022/04/24 04:15:17;;;;;;;12.65;7.90;;;;;;;7.72;66.36;98497.16;5007705;28;20057;-86
2022/04/24 04:17:42;;;;;;;13.05;8.75;;;;;;;7.86;65.84;98501.97;5006491;28;20040;-86
2022/04/24 04:20:11;;;;;;;18.55;8.85;;;;;;;7.93;65.29;98505.22;5007675;28;20018;-85
2022/04/24 04:22:53;;;;;;;19.15;9.55;;;;;;;7.56;66.59;98502.63;5007313;28;20443;-85
2022/04/24 04:25:19;;;;;;;11.40;7.13;;;;;;;8.07;65.27;98505.44;5006089;28;20018;-85
2022/04/24 04:27:45;;;;;;;15.27;9.85;;;;;;;8.59;63.05;98502.44;5007187;28;20018;-86
2022/04/24 04:30:10;;;;;;;14.48;8.48;;;;;;;8.59;62.95;98507.03;5005600;28;20014;-83
2022/04/24 04:32:36;;;;;;;18.77;9.50;;;;;;;8.15;64.90;98513.00;5006107;28;20068;-87
2022/04/24 04:35:02;;;;;;;13.65;8.30;;;;;;;8.29;64.51;98507.75;5007192;28;20025;-85
2022/04/24 04:37:28;;;;;;;19.45;8.93;;;;;;;8.22;64.71;98506.41;5006900;28;20029;-85
2022/04/24 04:39:53;;;;;;;12.57;7.68;;;;;;;8.29;64.81;98507.75;5006906;28;20532;-87
2022/04/24 04:42:18;;;;;;;13.33;8.53;;;;;;;7.97;65.94;98517.16;5005662;28;20032;-87
2022/04/24 04:44:44;;;;;;;13.48;9.13;;;;;;;7.98;65.86;98507.91;5005944;28;21015;-85
2022/04/24 04:47:09;;;;;;;13.13;8.32;;;;;;;8.38;64.75;98510.69;5005970;28;20022;-86
2022/04/24 04:49:34;;;;;;;16.40;9.35;;;;;;;8.23;64.77;98514.31;5006115;28;20101;-85
2022/04/24 04:52:00;;;;;;;16.38;8.90;;;;;;;8.07;65.40;98516.28;5005808;28;20224;-86
2022/04/24 04:54:25;;;;;;;13.05;8.40;;;;;;;7.97;66.16;98511.72;5006699;28;20018;-86
2022/04/24 04:56:50;;;;;;;19.13;9.53;;;;;;;7.94;65.88;98512.25;5006290;28;20526;-87
2022/04/24 04:59:15;;;;;;;17.63;9.70;;;;;;;7.94;66.29;98517.69;5006445;28;20259;-87
2022/04/24 05:01:40;;;;;;;13.20;8.38;;;;;;;7.70;66.96;98521.84;5006018;28;20446;-87
2022/04/24 05:04:06;;;;;;;14.70;9.07;;;;;;;8.29;65.05;98515.09;5006534;28;20480;-87
2022/04/24 05:06:32;;;;;;;15.73;9.65;;;;;;;8.33;65.17;98523.47;5005878;28;20271;-86
2022/04/24 05:08:57;;;;;;;14.80;9.15;;;;;;;8.38;65.04;98526.19;5005601;28;20493;-86
2022/04/24 05:11:22;;;;;;;22.92;10.65;;;;;;;8.48;64.99;98520.66;5005975;28;20305;-87
2022/04/24 05:13:47;;;;;;;14.55;9.10;;;;;;;8.72;63.85;98530.88;5005760;28;20477;-86
2022/04/24 05:16:13;;;;;;;13.80;8.60;;;;;;;8.74;63.48;98527.88;5005912;28;20026;-87
2022/04/24 05:18:38;;;;;;;15.68;8.57;;;;;;;8.87;63.49;98537.28;5004628;28;20572;-86
2022/04/24 05:21:03;;;;;;;17.03;9.77;;;;;;;8.72;63.67;98532.78;5005444;28;20126;-86
2022/04/24 05:23:29;;;;;;;17.52;9.82;;;;;;;8.80;63.47;98531.34;5006678;28;20260;-86
2022/04/24 05:25:54;;;;;;;21.80;10.85;;;;;;;8.94;62.99;98526.91;5005243;28;20033;-86
2022/04/24 05:28:19;;;;;;;27.05;11.57;;;;;;;9.13;62.00;98528.94;5006305;28;20568;-86
2022/04/24 05:30:44;;;;;;;13.60;8.93;;;;;;;9.14;62.33;98535.16;5005139;28;20014;-85
2022/04/24 05:33:15;;;;;;;13.97;7.30;;;;;;;9.07;62.38;98530.06;5005674;28;20276;-85
2022/04/24 05:35:41;;;;;;;15.98;8.05;;;;;;;9.22;62.10;98531.81;5005620;28;21060;-86
2022/04/24 05:38:06;;;;;;;16.90;9.57;;;;;;;9.39;61.15;98536.03;5005498;28;20029;-86
2022/04/24 05:40:31;;;;;;;13.95;8.93;;;;;;;9.30;61.18;98535.84;4987854;28;20125;-84
2022/04/24 05:42:57;;;;;;;20.02;8.77;;;;;;;9.30;61.78;98538.56;5005147;28;20469;-86
2022/04/24 05:45:24;;;;;;;12.27;7.85;;;;;;;9.46;61.00;98531.06;5005628;28;20045;-86
2022/04/24 05:47:50;;;;;;;19.30;9.40;;;;;;;9.37;60.88;98541.75;5002980;28;20037;-87
2022/04/24 05:50:15;;;;;;;13.63;8.75;;;;;;;9.29;61.85;98542.38;5005752;28;20064;-86
2022/04/24 05:52:41;;;;;;;16.23;8.85;;;;;;;9.26;61.68;98543.75;5005463;28;20026;-87
2022/04/24 05:55:07;;;;;;;14.43;7.95;;;;;;;9.48;61.70;98544.38;5006043;28;20026;-86
2022/04/24 05:57:36;;;;;;;15.65;8.60;;;;;;;9.52;61.47;98543.50;5005361;28;20033;-87
2022/04/24 06:00:07;;;;;;;11.18;7.25;;;;;;;9.54;61.11;98545.97;5005155;28;20030;-87
2022/04/24 06:02:32;;;;;;;14.05;8.27;;;;;;;9.54;61.17;98537.81;5005237;28;20099;-86
2022/04/24 06:04:57;;;;;;;15.98;8.80;;;;;;;9.66;60.62;98540.13;5005257;28;20500;-87
2022/04/24 06:07:23;;;;;;;14.35;7.35;;;;;;;9.45;60.70;98543.03;5006753;28;20048;-86
2022/04/24 06:09:49;;;;;;;12.45;7.90;;;;;;;9.57;60.28;98542.66;4997172;28;20029;-85
2022/04/24 06:12:14;;;;;;;13.60;7.88;;;;;;;9.62;60.99;98539.06;5008201;28;20056;-85
2022/04/24 06:14:40;;;;;;;24.90;9.27;;;;;;;9.60;60.58;98544.00;5008573;28;20028;-87
2022/04/24 06:17:05;;;;;;;22.02;9.05;;;;;;;9.83;59.87;98544.28;4998145;28;20310;-85
2022/04/24 06:19:31;;;;;;;11.10;7.22;;;;;;;9.73;60.54;98546.03;5006888;28;20104;-86
2022/04/24 06:21:57;;;;;;;11.63;7.22;;;;;;;9.84;59.68;98551.34;5012731;28;20579;-86
2022/04/24 06:24:22;;;;;;;13.20;7.13;;;;;;;9.86;60.49;98552.69;4994578;28;20527;-84
2022/04/24 06:26:47;;;;;;;15.37;9.10;;;;;;;9.88;60.16;98546.94;5003486;28;20041;-86
2022/04/24 06:29:13;;;;;;;17.85;7.47;;;;;;;9.93;60.03;98544.97;5004805;28;20283;-84
2022/04/24 06:31:39;;;;;;;15.25;8.73;;;;;;;9.87;60.00;98540.69;5002863;28;20087;-84
2022/04/24 06:34:04;;;;;;;12.82;7.18;;;;;;;9.99;60.07;98547.63;5003618;28;20077;-86
2022/04/24 06:36:29;;;;;;;14.27;7.15;;;;;;;9.97;59.54;98547.09;5002759;28;20054;-85
2022/04/24 06:38:55;;;;;;;11.53;7.40;;;;;;;10.13;59.27;98551.28;5005043;28;20053;-85
2022/04/24 06:41:20;;;;;;;14.10;7.83;;;;;;;10.08;59.56;98551.34;5004057;28;20282;-87
2022/04/24 06:43:45;;;;;;;13.83;6.97;;;;;;;10.14;58.98;98546.66;5003666;28;20341;-85
2022/04/24 06:46:11;;;;;;;16.17;7.80;;;;;;;10.18;59.11;98547.69;5003965;28;20345;-84
2022/04/24 06:48:36;;;;;;;13.70;8.07;;;;;;;10.17;58.76;98543.31;5004085;28;20066;-84
2022/04/24 06:51:02;;;;;;;11.30;5.93;;;;;;;10.16;58.85;98542.53;5004210;28;20479;-85
2022/04/24 06:53:28;;;;;;;12.65;7.10;;;;;;;10.11;59.09;98549.97;5004263;28;20626;-84
2022/04/24 06:55:53;;;;;;;11.73;6.53;;;;;;;10.32;58.86;98536.88;5004196;28;20077;-86
2022/04/24 06:58:19;;;;;;;13.38;7.72;;;;;;;10.25;58.19;98541.88;5004151;28;20061;-85
2022/04/24 07:00:46;;;;;;;12.30;7.28;;;;;;;10.34;58.39;98542.84;5003410;28;20128;-88
2022/04/24 07:03:12;;;;;;;11.27;6.10;;;;;;;10.42;58.03;98546.00;5004621;28;20029;-85
2022/04/24 07:05:38;;;;;;;15.13;6.97;;;;;;;10.49;57.97;98541.03;5003199;28;20057;-87
2022/04/24 07:11:06;;;;;;;11.50;6.03;;;;;;;10.68;57.56;98545.69;5002626;28;20069;-85
2022/04/24 07:13:32;;;;;;;12.60;7.45;;;;;;;10.78;57.59;98550.19;5003685;28;20466;-87
2022/04/24 07:15:57;;;;;;;15.60;7.15;;;;;;;10.83;57.52;98542.72;5003579;28;20041;-87
2022/04/24 07:18:23;;;;;;;11.75;8.20;;;;;;;10.80;57.66;98548.75;5004205;28;20056;-87
2022/04/24 07:20:48;;;;;;;11.82;7.28;;;;;;;10.84;57.62;98549.00;5004302;28;20547;-86
2022/04/24 07:23:14;;;;;;;11.77;6.20;;;;;;;10.94;57.34;98556.19;5003504;28;20036;-92
2022/04/24 07:25:43;;;;;;;12.82;6.47;;;;;;;11.03;56.78;98546.22;5003579;28;20653;-85
2022/04/24 07:28:08;;;;;;;19.05;7.38;;;;;;;11.05;56.68;98551.38;5003874;28;20459;-83
2022/04/24 07:30:34;;;;;;;16.17;7.53;;;;;;;11.17;56.71;98553.63;5006228;28;20142;-85
2022/04/24 07:33:00;;;;;;;11.82;6.22;;;;;;;11.19;56.20;98548.69;5011726;28;20157;-85
2022/04/24 07:35:28;;;;;;;11.85;7.07;;;;;;;11.05;56.36;98560.38;5007099;28;20485;-84
2022/04/24 07:37:54;;;;;;;14.45;6.68;;;;;;;10.99;56.54;98556.09;5001770;28;20101;-86
2022/04/24 07:40:22;;;;;;;24.00;8.35;;;;;;;10.96;55.80;98557.50;5003868;28;20142;-83
2022/04/24 07:42:51;;;;;;;10.60;6.20;;;;;;;11.14;56.05;98563.25;5006286;28;20387;-84
2022/04/24 07:45:26;;;;;;;12.07;7.95;;;;;;;11.16;55.52;98571.13;5007928;28;20026;-83
2022/04/24 07:47:54;;;;;;;15.98;6.40;;;;;;;11.21;55.31;98568.28;5004907;28;20037;-85
2022/04/24 07:50:25;;;;;;;13.52;7.70;;;;;;;11.27;55.18;98566.31;5006905;28;20299;-83
2022/04/24 07:52:51;;;;;;;14.43;6.57;;;;;;;11.37;55.29;98570.78;5007439;28;20033;-88
2022/04/24 07:55:19;;;;;;;11.48;6.00;;;;;;;11.38;55.10;98556.03;5008340;28;20018;-85
2022/04/24 07:57:48;;;;;;;11.20;6.68;;;;;;;11.31;54.62;98557.22;5007189;28;20026;-87
2022/04/24 08:00:16;;;;;;;17.25;7.00;;;;;;;11.37;54.91;98557.16;5007744;28;20500;-86
2022/04/24 08:03:02;;;;;;;13.18;5.88;;;;;;;11.39;55.27;98561.16;5007450;28;20519;-87
2022/04/24 08:05:30;;;;;;;11.90;6.97;;;;;;;11.60;55.30;98560.00;5008906;28;20033;-84
2022/04/24 08:07:57;;;;;;;11.93;6.45;;;;;;;11.51;55.21;98566.16;5007120;28;20045;-85
2022/04/24 08:10:26;;;;;;;11.07;7.15;;;;;;;11.65;54.78;98565.38;5006886;28;20095;-86
2022/04/24 08:12:51;;;;;;;10.13;6.15;;;;;;;11.70;54.71;98578.09;5006543;28;20828;-87
2022/04/24 08:15:17;;;;;;;11.25;6.22;;;;;;;11.68;54.79;98564.75;5007574;28;20017;-86
2022/04/24 08:17:43;;;;;;;10.73;6.13;;;;;;;11.72;54.93;98568.50;5006361;28;20033;-87
2022/04/24 08:20:10;;;;;;;11.52;6.00;;;;;;;11.86;54.89;98564.97;5006803;28;20033;-85
2022/04/24 08:22:46;;;;;;;11.95;6.97;;;;;;;11.92;54.65;98566.50;5006590;28;20038;-84
2022/04/24 08:25:14;;;;;;;12.90;6.38;;;;;;;11.98;54.56;98568.00;5007771;28;20018;-85
2022/04/24 08:30:44;;;;;;;13.52;7.32;;;;;;;11.95;54.65;98565.09;5002919;28;20109;-86
2022/04/24 08:33:10;;;;;;;12.35;5.90;;;;;;;12.00;53.97;98559.53;4997644;28;20022;-85
2022/04/24 08:35:36;;;;;;;12.82;6.35;;;;;;;12.01;53.59;98556.50;5006031;28;20160;-86
2022/04/24 08:38:01;;;;;;;9.88;5.65;;;;;;;12.09;53.89;98562.34;5005932;28;20058;-86
2022/04/24 08:40:26;;;;;;;12.50;6.32;;;;;;;12.23;53.75;98556.91;5006251;28;20528;-83
2022/04/24 08:42:52;;;;;;;9.85;5.28;;;;;;;12.33;53.79;98566.81;5008352;28;20069;-86
2022/04/24 08:45:24;;;;;;;14.60;7.07;;;;;;;12.29;53.32;98563.06;5010960;28;20041;-86
2022/04/24 08:47:51;;;;;;;15.30;8.45;;;;;;;12.34;52.86;98562.97;5010181;28;20077;-85
2022/04/24 08:50:16;;;;;;;13.13;7.32;;;;;;;12.43;53.19;98563.84;4992539;28;20026;-86
2022/04/24 08:52:45;;;;;;;16.48;8.70;;;;;;;12.42;52.39;98570.44;5007125;28;20038;-83
2022/04/24 08:55:11;;;;;;;12.25;8.00;;;;;;;12.54;53.18;98563.63;5005553;28;20083;-84
2022/04/24 08:57:37;;;;;;;10.60;6.57;;;;;;;12.68;52.45;98566.34;5006135;28;20029;-88
2022/04/24 09:00:07;;;;;;;13.35;7.20;;;;;;;12.77;51.62;98563.69;5007510;28;20030;-87
2022/04/24 09:02:32;;;;;;;15.63;7.35;;;;;;;12.95;51.36;98570.91;5009884;28;20215;-87
2022/04/24 09:04:57;;;;;;;16.65;7.15;;;;;;;13.04;52.05;98556.47;5010806;28;20031;-87
2022/04/24 09:07:30;;;;;;;14.07;7.40;;;;;;;13.14;51.56;98558.97;5011017;28;20552;-86
2022/04/24 09:09:55;;;;;;;16.02;7.15;;;;;;;13.21;51.29;98557.72;5007167;28;20514;-87
2022/04/24 09:12:29;;;;;;;12.33;7.07;;;;;;;13.29;50.81;98554.22;5009534;28;20030;-83
2022/04/24 09:14:56;;;;;;;13.80;7.93;;;;;;;13.41;50.73;98553.66;5004191;28;20301;-87
2022/04/24 09:17:34;;;;;;;13.75;6.60;;;;;;;13.50;50.76;98545.50;5009609;28;20044;-87
2022/04/24 09:20:01;;;;;;;9.88;5.95;;;;;;;13.59;50.63;98551.84;4990541;28;20058;-87
2022/04/24 09:22:26;;;;;;;11.55;6.28;;;;;;;13.54;49.36;98552.81;5019127;28;20026;-87
2022/04/24 09:24:56;;;;;;;22.73;7.82;;;;;;;13.68;49.98;98535.47;5018725;28;20029;-87
2022/04/24 09:27:32;;;;;;;13.40;6.90;;;;;;;13.83;49.85;98556.13;5010088;28;20045;-87
2022/04/24 09:30:00;;;;;;;16.15;7.28;;;;;;;13.83;48.88;98553.38;4990665;28;20120;-88
2022/04/24 09:32:27;;;;;;;14.80;6.93;;;;;;;13.97;48.91;98547.00;5009109;28;20026;-88
2022/04/24 09:34:52;;;;;;;14.93;9.70;;;;;;;14.04;48.93;98539.13;5008614;28;20064;-87
2022/04/24 09:37:18;;;;;;;12.15;7.35;;;;;;;14.16;48.66;98533.03;5008036;28;20058;-86
2022/04/24 09:39:44;;;;;;;12.38;7.35;;;;;;;14.23;48.69;98543.53;5004424;28;20048;-88
2022/04/24 09:42:15;;;;;;;15.40;8.82;;;;;;;14.33;48.65;98545.16;5017904;28;20379;-86
2022/04/24 09:47:34;;;;;;;14.75;8.35;;;;;;;14.47;47.85;98553.22;5003614;28;20923;-88
2022/04/24 09:50:00;;;;;;;15.82;8.38;;;;;;;14.57;47.30;98552.09;5007018;28;20041;-80
2022/04/24 09:52:25;;;;;;;15.40;7.80;;;;;;;14.56;47.00;98545.81;5006101;28;20037;-85
2022/04/24 09:54:53;;;;;;;12.30;7.68;;;;;;;14.66;46.48;98543.91;5016756;28;20388;-85
2022/04/24 09:57:21;;;;;;;13.20;8.30;;;;;;;14.76;46.70;98548.25;5015071;28;20026;-89
2022/04/24 09:59:48;;;;;;;23.08;8.40;;;;;;;14.82;46.52;98547.78;5008879;28;20018;-89
2022/04/24 10:02:18;;;;;;;63.90;14.73;;;;;;;14.86;46.48;98536.97;4991736;28;20025;-90
2022/04/24 10:04:45;;;;;;;14.75;8.45;;;;;;;14.97;46.21;98544.88;5008710;28;20045;-86
2022/04/24 10:07:12;;;;;;;246.65;31.42;;;;;;;15.10;47.04;98543.09;5008765;28;20051;-90
2022/04/24 10:09:40;;;;;;;110.88;17.45;;;;;;;15.25;47.14;98547.28;4989456;28;20022;-85
2022/04/24 10:12:07;;;;;;;13.60;7.43;;;;;;;15.24;45.90;98540.97;5007900;28;20030;-86
2022/04/24 10:15:12;;;;;;;56.92;11.13;;;;;;;15.23;46.44;98549.53;4991099;28;20033;-91
2022/04/24 10:17:46;;;;;;;;;;;;;;;15.28;45.52;98541.13;5009055;28;20116;-90
2022/04/24 10:20:42;;;;;;;14.25;7.60;;;;;;;15.26;44.74;98537.88;5008957;28;19928;-91
2022/04/24 10:23:09;;;;;;;19.95;8.65;;;;;;;15.33;46.12;98551.13;5014083;28;20138;-91
2022/04/24 10:25:40;;;;;;;14.85;7.90;;;;;;;15.45;45.58;98550.44;5009853;28;20030;-87
2022/04/24 10:28:35;;;;;;;13.60;7.22;;;;;;;15.49;44.73;98538.50;5009625;28;20057;-90
2022/04/24 10:31:03;;;;;;;12.23;7.15;;;;;;;15.58;44.84;98543.16;4999878;28;20030;-89
2022/04/24 10:33:30;;;;;;;15.70;7.90;;;;;;;15.58;44.83;98543.16;5011188;28;20523;-88
2022/04/24 10:36:13;;;;;;;21.50;8.68;;;;;;;15.72;45.70;98553.91;5012080;28;20030;-89
2022/04/24 10:38:57;;;;;;;14.60;7.00;;;;;;;15.74;44.44;98560.69;5009836;28;21329;-87
2022/04/24 10:41:24;;;;;;;12.63;7.38;;;;;;;15.82;44.26;98547.25;5010529;28;20148;-88
2022/04/24 10:43:57;;;;;;;19.10;8.27;;;;;;;15.88;43.77;98557.72;5007781;28;20037;-87
2022/04/24 10:46:32;;;;;;;19.65;7.82;;;;;;;15.83;43.79;98554.34;5006117;28;20636;-83
2022/04/24 10:49:11;;;;;;;14.05;7.65;;;;;;;15.75;44.25;98547.75;5004880;28;20025;-89
2022/04/24 10:51:40;;;;;;;19.58;6.85;;;;;;;15.81;43.27;98556.63;5005908;28;20037;-85
2022/04/24 10:54:08;;;;;;;31.27;8.50;;;;;;;15.95;43.56;98551.72;5006769;28;20056;-83
2022/04/24 10:56:35;;;;;;;14.25;7.43;;;;;;;15.96;43.92;98541.53;5007564;28;20500;-82
2022/04/24 10:59:15;;;;;;;12.30;6.78;;;;;;;16.33;43.02;98550.06;5005355;28;20036;-82
2022/04/24 11:01:43;;;;;;;13.55;7.40;;;;;;;16.36;41.59;98558.78;5005275;28;20041;-84
2022/04/24 11:07:21;;;;;;;10.55;6.90;;;;;;;16.36;41.43;98554.09;4991589;28;20145;-84
2022/04/24 11:09:47;;;;;;;9.80;6.18;;;;;;;16.23;41.64;98550.47;5007451;28;20036;-84
2022/04/24 11:12:12;;;;;;;11.88;6.50;;;;;;;16.01;41.56;98543.28;5007256;28;20041;-82
2022/04/24 11:14:38;;;;;;;13.98;8.00;;;;;;;16.13;41.20;98550.84;5005122;28;20113;-83
2022/04/24 11:17:06;;;;;;;11.80;7.60;;;;;;;16.38;41.78;98546.31;5000226;28;20103;-82
2022/04/24 11:19:31;;;;;;;15.52;8.35;;;;;;;16.72;42.17;98548.38;5007907;28;20052;-81
2022/04/24 11:22:03;;;;;;;17.02;7.47;;;;;;;16.59;42.94;98533.72;5008289;28;20077;-82
2022/04/24 11:24:31;;;;;;;13.23;7.55;;;;;;;16.50;41.03;98537.34;5015314;28;20076;-83
2022/04/24 11:27:00;;;;;;;10.43;6.72;;;;;;;16.52;40.94;98545.25;5005362;28;20169;-83
2022/04/24 11:29:26;;;;;;;12.07;7.20;;;;;;;16.69;41.06;98556.16;5005030;28;20030;-83
2022/04/24 11:31:53;;;;;;;12.25;7.13;;;;;;;16.91;40.32;98545.13;5010165;28;20045;-83
2022/04/24 11:34:20;;;;;;;12.43;7.22;;;;;;;16.79;41.16;98543.91;5027138;28;20048;-82
2022/04/24 11:36:47;;;;;;;9.50;6.60;;;;;;;16.88;41.32;98545.81;5004067;28;20084;-82
2022/04/24 11:39:13;;;;;;;16.55;7.78;;;;;;;17.01;41.29;98539.19;5013074;28;20033;-81
2022/04/24 11:41:39;;;;;;;8.93;6.15;;;;;;;16.97;40.82;98545.72;5013063;28;20038;-81
2022/04/24 11:52:33;;;;;;;10.93;6.90;;;;;;;16.77;38.97;98546.22;5006778;28;20106;-82
2022/04/24 11:54:59;;;;;;;9.85;6.53;;;;;;;16.98;38.71;98539.06;4998291;28;20030;-82
2022/04/24 11:57:24;;;;;;;11.10;7.10;;;;;;;16.68;38.59;98548.19;5002028;28;20477;-81